Time;durP1;ratioP1;P1;durP2;ratioP2;P2;SDS_P1;SDS_P2;PMS_P1;PMS_P2;Temp;Humidity;BMP_temperature;BMP_pressure;BME280_temperature;BME280_humidity;BME280_pressure;Samples;Min_cycle;Max_cycle;Signal;HPM_P1;HPM_P2
2022/01/06 00:01:20;;;;;;;33.80;18.27;;;7.50;99.90;;;;;;4972199;28;20015;-74
2022/01/06 00:03:46;;;;;;;36.42;19.48;;;7.60;99.90;;;;;;4972123;28;20358;-73
2022/01/06 00:06:13;;;;;;;39.58;21.67;;;7.60;99.90;;;;;;4972198;28;20030;-74
2022/01/06 00:08:39;;;;;;;47.92;25.65;;;7.50;99.90;;;;;;4971997;28;20057;-74
2022/01/06 00:11:10;;;;;;;44.17;23.58;;;7.50;99.90;;;;;;4969622;28;20155;-74
2022/01/06 00:14:15;;;;;;;44.92;23.80;;;7.50;99.90;;;;;;4971712;28;20035;-74
2022/01/06 00:16:41;;;;;;;47.78;23.70;;;7.50;99.90;;;;;;4973282;28;20117;-73
2022/01/06 00:24:25;;;;;;;34.35;15.35;;;7.50;99.90;;;;;;4971516;28;20061;-73
2022/01/06 00:26:51;;;;;;;27.55;14.23;;;7.50;99.90;;;;;;4971614;28;20045;-73
2022/01/06 00:29:18;;;;;;;26.35;12.82;;;7.50;99.90;;;;;;4971757;28;20536;-74
2022/01/06 00:31:44;;;;;;;15.45;8.27;;;7.50;99.90;;;;;;4971740;28;20019;-73
2022/01/06 00:34:10;;;;;;;45.50;16.33;;;7.40;99.90;;;;;;4970777;28;20090;-73
2022/01/06 00:36:38;;;;;;;17.17;8.35;;;7.40;99.90;;;;;;4971646;28;20078;-73
2022/01/06 00:39:04;;;;;;;22.77;11.93;;;7.40;99.90;;;;;;4971406;28;20047;-73
2022/01/06 00:41:33;;;;;;;27.73;14.05;;;7.40;99.90;;;;;;4970858;28;20109;-73
2022/01/06 00:43:59;;;;;;;25.85;13.50;;;7.40;99.90;;;;;;4971564;28;20066;-73
2022/01/06 00:46:25;;;;;;;26.48;13.80;;;7.30;99.90;;;;;;4971551;28;20050;-73
2022/01/06 00:48:50;;;;;;;21.10;10.70;;;7.40;99.90;;;;;;4971111;28;20359;-73
2022/01/06 00:51:16;;;;;;;26.35;12.88;;;7.30;99.90;;;;;;4971561;28;20362;-73
2022/01/06 00:53:42;;;;;;;14.02;8.27;;;7.30;99.90;;;;;;4971491;28;20050;-73
2022/01/06 00:56:08;;;;;;;16.52;8.60;;;7.20;99.90;;;;;;4971030;28;20144;-74
2022/01/06 00:58:34;;;;;;;15.38;8.00;;;7.10;99.90;;;;;;4971405;28;20037;-73
2022/01/06 01:01:00;;;;;;;15.05;8.50;;;7.10;99.90;;;;;;4970902;28;20027;-73
2022/01/06 01:03:27;;;;;;;15.85;7.68;;;7.00;99.90;;;;;;4968818;28;20015;-73
2022/01/06 01:05:55;;;;;;;18.15;9.00;;;7.00;99.90;;;;;;4971222;28;20034;-73
2022/01/06 01:08:22;;;;;;;14.55;7.47;;;7.00;99.90;;;;;;4970975;28;20061;-73
2022/01/06 01:10:50;;;;;;;16.40;7.95;;;6.90;99.90;;;;;;4971332;28;20457;-73
2022/01/06 01:13:26;;;;;;;11.43;6.50;;;6.90;99.90;;;;;;4970940;28;20026;-73
2022/01/06 01:15:55;;;;;;;14.98;6.70;;;6.80;99.90;;;;;;4978420;28;20051;-72
2022/01/06 01:18:22;;;;;;;15.40;7.90;;;6.70;99.90;;;;;;4970839;28;20064;-73
2022/01/06 01:20:49;;;;;;;13.13;6.88;;;6.70;99.90;;;;;;4971396;28;20054;-73
2022/01/06 01:23:17;;;;;;;15.70;8.50;;;6.70;99.90;;;;;;4971030;28;20044;-73
2022/01/06 01:25:43;;;;;;;24.38;10.05;;;6.60;99.90;;;;;;4970901;28;20027;-73
2022/01/06 01:28:10;;;;;;;15.50;8.05;;;6.60;99.90;;;;;;4970956;28;20042;-73
2022/01/06 01:33:21;;;;;;;15.48;7.63;;;6.40;99.90;;;;;;4970019;28;21442;-73
2022/01/06 01:35:46;;;;;;;16.48;8.00;;;6.40;99.90;;;;;;4968463;28;20054;-73
2022/01/06 01:38:12;;;;;;;10.80;6.75;;;6.30;99.90;;;;;;4970682;28;20386;-73
2022/01/06 01:40:38;;;;;;;12.35;7.22;;;6.30;99.90;;;;;;4970731;28;20057;-73
2022/01/06 01:43:05;;;;;;;18.17;8.57;;;6.30;99.90;;;;;;4970202;28;20043;-73
2022/01/06 01:45:33;;;;;;;12.07;7.93;;;6.30;99.90;;;;;;4970429;28;20091;-73
2022/01/06 01:48:04;;;;;;;11.00;7.20;;;6.20;99.90;;;;;;4970623;28;20109;-73
2022/01/06 01:50:31;;;;;;;12.63;7.63;;;6.20;99.90;;;;;;4968873;28;20027;-73
2022/01/06 01:52:57;;;;;;;15.40;9.15;;;6.20;99.90;;;;;;4970876;28;20132;-73
2022/01/06 01:55:28;;;;;;;20.08;10.43;;;6.20;99.90;;;;;;4970304;28;20109;-73
2022/01/06 01:57:56;;;;;;;19.70;10.70;;;6.20;99.90;;;;;;4970296;28;20115;-73
2022/01/06 02:00:25;;;;;;;28.90;14.48;;;6.20;99.90;;;;;;4970845;28;20084;-73
2022/01/06 02:02:50;;;;;;;28.63;17.13;;;6.10;99.90;;;;;;4970358;28;20073;-73
2022/01/06 02:05:24;;;;;;;15.85;9.30;;;6.20;99.90;;;;;;4970428;28;20031;-73
2022/01/06 02:07:51;;;;;;;18.77;10.93;;;6.10;99.90;;;;;;4968510;28;20110;-73
2022/01/06 02:10:18;;;;;;;12.68;7.50;;;6.10;99.90;;;;;;4970590;28;20066;-73
2022/01/06 02:12:45;;;;;;;12.43;7.22;;;6.00;99.90;;;;;;4970242;28;20023;-73
2022/01/06 02:15:11;;;;;;;9.65;5.57;;;5.90;99.90;;;;;;4971473;28;20042;-73
2022/01/06 02:17:38;;;;;;;10.60;4.63;;;5.90;99.90;;;;;;4971842;28;20487;-73
2022/01/06 02:20:07;;;;;;;8.73;4.50;;;5.90;99.90;;;;;;4971332;28;20027;-72
2022/01/06 02:22:33;;;;;;;12.40;5.68;;;5.80;99.90;;;;;;4970212;28;20102;-73
2022/01/06 02:25:13;;;;;;;8.48;4.55;;;5.70;99.90;;;;;;4969472;28;20030;-73
2022/01/06 02:27:39;;;;;;;15.85;9.32;;;5.70;99.90;;;;;;4969625;28;20081;-73
2022/01/06 02:30:06;;;;;;;10.07;5.20;;;5.70;99.90;;;;;;4969596;28;20482;-73
2022/01/06 02:32:32;;;;;;;17.20;8.43;;;5.70;99.90;;;;;;4969370;28;20019;-72
2022/01/06 02:35:02;;;;;;;44.78;16.73;;;5.70;99.90;;;;;;4969889;28;20110;-73
2022/01/06 02:37:27;;;;;;;25.33;10.80;;;5.70;99.90;;;;;;4970537;28;20117;-73
2022/01/06 02:39:53;;;;;;;16.88;8.73;;;5.60;99.90;;;;;;4971789;28;20173;-73
2022/01/06 02:42:19;;;;;;;13.80;7.88;;;5.70;99.90;;;;;;4971077;28;20508;-73
2022/01/06 02:44:45;;;;;;;16.05;7.50;;;5.70;99.90;;;;;;4971168;28;20031;-73
2022/01/06 02:47:10;;;;;;;18.48;8.65;;;5.60;99.90;;;;;;4971213;28;20039;-73
2022/01/06 02:49:36;;;;;;;14.32;7.20;;;5.70;99.90;;;;;;4971204;28;20031;-73
2022/01/06 02:52:02;;;;;;;20.20;8.38;;;5.60;99.90;;;;;;4971265;28;20462;-73
2022/01/06 02:54:28;;;;;;;13.93;6.28;;;5.60;99.90;;;;;;4971202;28;20027;-73
2022/01/06 02:56:54;;;;;;;10.82;4.85;;;5.60;99.90;;;;;;4971809;28;20039;-73
2022/01/06 02:59:20;;;;;;;9.50;5.63;;;5.60;99.90;;;;;;4974744;28;20019;-73
2022/01/06 03:01:46;;;;;;;11.65;4.93;;;5.60;99.90;;;;;;4974461;28;20019;-73
2022/01/06 03:04:12;;;;;;;22.75;7.65;;;5.60;99.90;;;;;;4974284;28;20039;-73
2022/01/06 03:06:39;;;;;;;21.33;9.02;;;5.60;99.90;;;;;;4974421;28;20035;-73
2022/01/06 03:09:06;;;;;;;13.75;5.82;;;5.50;99.90;;;;;;4974110;28;20027;-73
2022/01/06 03:11:33;;;;;;;58.30;17.13;;;5.50;99.90;;;;;;4974310;28;20027;-73
2022/01/06 03:14:00;;;;;;;62.88;20.52;;;5.50;99.90;;;;;;4973951;28;20054;-73
2022/01/06 03:16:26;;;;;;;73.32;22.42;;;5.50;99.90;;;;;;4974298;28;20023;-73
2022/01/06 03:18:52;;;;;;;47.83;16.20;;;5.50;99.90;;;;;;4974477;28;20023;-73
2022/01/06 03:21:18;;;;;;;54.70;16.65;;;5.60;99.90;;;;;;4974156;28;20027;-73
2022/01/06 03:23:44;;;;;;;67.15;22.08;;;5.60;99.90;;;;;;4974316;28;20373;-73
2022/01/06 03:26:10;;;;;;;43.25;16.35;;;5.60;99.90;;;;;;4974162;28;20023;-73
2022/01/06 03:28:36;;;;;;;64.35;24.00;;;5.60;99.90;;;;;;4973949;28;20420;-73
2022/01/06 03:31:02;;;;;;;66.78;22.38;;;5.60;99.90;;;;;;4973881;28;20037;-73
2022/01/06 03:33:27;;;;;;;27.23;11.68;;;5.50;99.90;;;;;;4974021;28;20026;-73
2022/01/06 03:35:53;;;;;;;25.17;12.73;;;5.50;99.90;;;;;;4973903;28;20073;-73
2022/01/06 03:38:19;;;;;;;28.42;11.98;;;5.50;99.90;;;;;;4974398;28;20035;-73
2022/01/06 03:40:45;;;;;;;25.92;11.65;;;5.40;99.90;;;;;;4973937;28;20034;-73
2022/01/06 03:43:11;;;;;;;30.35;12.25;;;5.30;99.90;;;;;;4973740;28;20046;-73
2022/01/06 03:45:37;;;;;;;25.20;11.23;;;5.30;99.90;;;;;;4973937;28;20062;-73
2022/01/06 03:48:06;;;;;;;23.30;9.80;;;5.20;99.90;;;;;;4974010;28;20058;-73
2022/01/06 03:50:32;;;;;;;26.73;10.18;;;5.20;99.90;;;;;;4973560;28;20117;-73
2022/01/06 03:52:58;;;;;;;34.88;14.57;;;5.20;99.90;;;;;;4973812;28;20454;-73
2022/01/06 03:55:24;;;;;;;18.35;8.55;;;5.20;99.90;;;;;;4973852;28;20470;-73
2022/01/06 03:57:50;;;;;;;21.15;8.68;;;5.10;99.90;;;;;;4973331;28;20079;-74
2022/01/06 04:00:21;;;;;;;18.10;7.43;;;5.00;99.90;;;;;;4973717;28;20117;-73
2022/01/06 04:02:48;;;;;;;23.77;9.88;;;4.80;99.90;;;;;;4973696;28;20056;-73
2022/01/06 04:05:14;;;;;;;27.63;10.88;;;4.70;99.90;;;;;;4973491;28;20369;-73
2022/01/06 04:07:41;;;;;;;23.75;8.95;;;4.70;99.90;;;;;;4973367;28;20084;-73
2022/01/06 04:10:08;;;;;;;23.20;9.02;;;4.70;99.90;;;;;;4972225;28;20113;-73
2022/01/06 04:12:35;;;;;;;33.17;10.95;;;4.60;99.90;;;;;;4973271;28;20019;-74
2022/01/06 04:15:03;;;;;;;45.40;13.57;;;4.50;99.90;;;;;;4973437;28;20023;-73
2022/01/06 04:17:28;;;;;;;50.45;15.23;;;4.50;99.90;;;;;;4973013;28;20470;-73
2022/01/06 04:19:54;;;;;;;42.63;13.07;;;4.40;99.90;;;;;;4973469;28;20049;-73
2022/01/06 04:22:20;;;;;;;15.18;6.75;;;4.30;99.90;;;;;;4973354;28;20076;-73
2022/01/06 04:24:46;;;;;;;18.23;7.35;;;4.20;99.90;;;;;;4973099;28;20030;-73
2022/01/06 04:27:12;;;;;;;25.00;9.70;;;4.20;99.90;;;;;;4973047;28;20117;-73
2022/01/06 04:29:38;;;;;;;23.27;9.93;;;4.20;99.90;;;;;;4972975;28;20074;-73
2022/01/06 04:32:04;;;;;;;17.60;7.50;;;4.10;99.90;;;;;;4972791;28;20054;-73
2022/01/06 04:34:30;;;;;;;23.48;8.10;;;4.10;99.90;;;;;;4973071;28;20432;-73
2022/01/06 04:36:58;;;;;;;23.23;11.25;;;4.10;99.90;;;;;;4973174;28;20054;-73
2022/01/06 04:39:24;;;;;;;25.30;12.40;;;4.00;99.90;;;;;;4972955;28;20054;-73
2022/01/06 04:41:49;;;;;;;48.70;17.65;;;4.10;99.90;;;;;;4972701;28;20454;-73
2022/01/06 04:44:15;;;;;;;57.92;21.17;;;4.10;99.90;;;;;;4973086;28;20027;-73
2022/01/06 04:46:41;;;;;;;59.15;23.48;;;4.20;99.90;;;;;;4972509;28;20031;-74
2022/01/06 04:49:07;;;;;;;30.58;14.13;;;4.20;99.90;;;;;;4973043;28;20049;-73
2022/01/06 04:51:33;;;;;;;25.73;12.63;;;4.20;99.90;;;;;;4972985;28;20109;-73
2022/01/06 04:53:59;;;;;;;56.33;28.00;;;4.10;99.90;;;;;;4972745;28;20463;-73
2022/01/06 04:56:25;;;;;;;47.10;24.10;;;4.20;99.90;;;;;;4972549;28;20054;-73
2022/01/06 04:58:51;;;;;;;36.15;14.98;;;4.20;99.90;;;;;;4972527;28;20023;-73
2022/01/06 05:01:17;;;;;;;32.40;14.82;;;4.20;99.90;;;;;;4972787;28;20117;-73
2022/01/06 05:03:43;;;;;;;23.13;11.40;;;4.10;99.90;;;;;;4972557;28;20031;-73
2022/01/06 05:06:09;;;;;;;26.00;12.57;;;4.10;99.90;;;;;;4972312;28;20470;-73
2022/01/06 05:08:34;;;;;;;20.88;10.00;;;4.10;99.90;;;;;;4971423;28;20120;-73
2022/01/06 05:11:01;;;;;;;13.73;5.95;;;4.00;99.90;;;;;;4972335;28;20411;-73
2022/01/06 05:13:26;;;;;;;15.82;8.10;;;4.00;99.90;;;;;;4972011;28;20137;-73
2022/01/06 05:15:52;;;;;;;21.50;10.13;;;3.90;99.90;;;;;;4972363;28;20110;-73
2022/01/06 05:18:18;;;;;;;29.60;13.48;;;4.00;99.90;;;;;;4972163;28;20031;-73
2022/01/06 05:20:44;;;;;;;20.17;10.02;;;4.00;99.90;;;;;;4971846;28;20355;-73
2022/01/06 05:23:12;;;;;;;31.50;14.75;;;4.00;99.90;;;;;;4972542;28;20112;-73
2022/01/06 05:25:39;;;;;;;34.58;16.15;;;4.00;99.90;;;;;;4972421;28;20062;-73
2022/01/06 05:28:05;;;;;;;56.70;28.27;;;3.90;99.90;;;;;;4972181;28;20031;-73
2022/01/06 05:30:31;;;;;;;21.60;10.82;;;3.90;99.90;;;;;;4972312;28;20034;-73
2022/01/06 05:32:57;;;;;;;29.75;14.30;;;3.80;99.90;;;;;;4972444;28;20034;-73
2022/01/06 05:35:23;;;;;;;22.75;11.40;;;3.90;99.90;;;;;;4971942;28;20035;-73
2022/01/06 05:37:49;;;;;;;21.88;10.77;;;3.80;99.90;;;;;;4972238;28;20031;-73
2022/01/06 05:40:14;;;;;;;29.52;14.80;;;3.90;99.90;;;;;;4972201;28;20030;-73
2022/01/06 05:42:41;;;;;;;38.13;20.65;;;3.80;99.90;;;;;;4971553;28;20054;-73
2022/01/06 05:45:08;;;;;;;43.85;21.92;;;3.90;99.90;;;;;;4971830;28;20062;-73
2022/01/06 05:47:34;;;;;;;25.83;13.63;;;3.90;99.90;;;;;;4972139;28;20030;-73
2022/01/06 05:50:00;;;;;;;36.75;18.55;;;3.90;99.90;;;;;;4971767;28;20027;-74
2022/01/06 05:52:26;;;;;;;44.95;21.85;;;4.00;99.90;;;;;;4972061;28;20023;-73
2022/01/06 05:54:52;;;;;;;28.88;13.55;;;3.90;99.90;;;;;;4971775;28;20027;-73
2022/01/06 05:57:19;;;;;;;28.02;13.68;;;3.90;99.90;;;;;;4971853;28;20035;-74
2022/01/06 05:59:45;;;;;;;47.88;19.90;;;3.90;99.90;;;;;;4971495;28;20041;-73
2022/01/06 06:02:11;;;;;;;58.78;25.23;;;4.00;99.90;;;;;;4971843;28;20105;-73
2022/01/06 06:04:37;;;;;;;73.63;32.70;;;4.00;99.90;;;;;;4971974;28;20038;-73
2022/01/06 06:07:03;;;;;;;74.45;34.15;;;4.00;99.90;;;;;;4971887;28;20076;-74
2022/01/06 06:09:29;;;;;;;78.50;38.17;;;4.00;99.90;;;;;;4971510;28;20421;-73
2022/01/06 06:11:54;;;;;;;74.20;42.80;;;4.00;99.90;;;;;;4972018;28;20109;-73
2022/01/06 06:14:20;;;;;;;69.60;33.35;;;4.00;99.90;;;;;;4971828;28;20100;-74
2022/01/06 06:16:46;;;;;;;71.38;35.30;;;4.00;99.90;;;;;;4971400;28;20106;-73
2022/01/06 06:19:12;;;;;;;53.63;25.17;;;4.00;99.90;;;;;;4971875;28;20523;-73
2022/01/06 06:21:38;;;;;;;51.60;25.50;;;4.00;99.90;;;;;;4971421;28;20378;-74
2022/01/06 06:24:04;;;;;;;65.43;36.50;;;4.00;99.90;;;;;;4971345;28;20144;-74
2022/01/06 06:26:30;;;;;;;54.47;27.73;;;4.10;99.90;;;;;;4971606;28;20094;-73
2022/01/06 06:28:55;;;;;;;38.38;19.17;;;4.10;99.90;;;;;;4971753;28;20488;-74
2022/01/06 06:31:21;;;;;;;44.08;22.00;;;4.10;99.90;;;;;;4971502;28;20477;-74
2022/01/06 06:33:47;;;;;;;47.80;22.98;;;4.00;99.90;;;;;;4974428;28;20039;-75
2022/01/06 06:36:13;;;;;;;59.17;27.20;;;4.00;99.90;;;;;;4975189;28;20033;-74
2022/01/06 06:38:39;;;;;;;38.58;19.73;;;4.00;99.90;;;;;;4974814;28;20027;-74
2022/01/06 06:41:04;;;;;;;42.97;21.15;;;4.00;99.90;;;;;;4974965;28;20052;-74
2022/01/06 06:43:30;;;;;;;46.35;21.83;;;4.00;99.90;;;;;;4974453;28;20046;-74
2022/01/06 06:45:56;;;;;;;62.13;30.48;;;4.00;99.90;;;;;;4974423;28;20053;-74
2022/01/06 06:48:22;;;;;;;70.30;35.75;;;4.00;99.90;;;;;;4974391;28;20030;-74
2022/01/06 06:50:48;;;;;;;103.10;41.88;;;4.00;99.90;;;;;;4974665;28;20100;-74
2022/01/06 06:53:14;;;;;;;109.90;48.25;;;4.00;99.90;;;;;;4974901;28;20445;-74
2022/01/06 06:55:39;;;;;;;95.28;43.05;;;4.00;99.90;;;;;;4974377;28;20035;-74
2022/01/06 06:58:05;;;;;;;114.43;50.20;;;4.00;99.90;;;;;;4974431;28;20031;-74
2022/01/06 07:00:32;;;;;;;150.50;62.40;;;4.00;99.90;;;;;;4974642;28;20031;-74
2022/01/06 07:02:57;;;;;;;150.07;59.17;;;4.00;99.90;;;;;;4974577;28;20121;-74
2022/01/06 07:05:23;;;;;;;137.70;53.67;;;4.00;99.90;;;;;;4974107;28;20114;-74
2022/01/06 07:07:49;;;;;;;105.13;43.13;;;4.00;99.90;;;;;;4974154;28;20433;-74
2022/01/06 07:10:15;;;;;;;258.25;99.63;;;4.00;99.90;;;;;;4974434;28;20031;-74
2022/01/06 07:12:42;;;;;;;154.52;62.42;;;4.00;99.90;;;;;;4974003;28;20054;-74
2022/01/06 07:15:10;;;;;;;218.05;92.55;;;4.00;99.90;;;;;;4974435;28;20031;-74
2022/01/06 07:17:36;;;;;;;138.50;62.08;;;4.00;99.90;;;;;;4973899;28;20456;-74
2022/01/06 07:20:04;;;;;;;106.00;47.08;;;4.00;99.90;;;;;;4974191;28;20098;-74
2022/01/06 07:22:30;;;;;;;93.85;42.13;;;4.00;99.90;;;;;;4974127;28;20076;-74
2022/01/06 07:24:56;;;;;;;62.55;30.80;;;4.10;99.90;;;;;;4974327;28;20023;-74
2022/01/06 07:27:22;;;;;;;35.83;18.38;;;4.10;99.90;;;;;;4973724;28;20042;-74
2022/01/06 07:29:47;;;;;;;25.20;14.13;;;4.10;99.90;;;;;;4974299;28;20035;-74
2022/01/06 07:32:13;;;;;;;60.47;34.08;;;4.00;99.90;;;;;;4973924;28;20023;-74
2022/01/06 07:34:39;;;;;;;64.95;33.72;;;4.00;99.90;;;;;;4973819;28;20033;-74
2022/01/06 07:37:05;;;;;;;67.93;37.67;;;4.10;99.90;;;;;;4973996;28;20026;-74
2022/01/06 07:39:31;;;;;;;67.20;39.20;;;4.10;99.90;;;;;;4974147;28;20547;-74
2022/01/06 07:41:57;;;;;;;51.20;27.45;;;4.10;99.90;;;;;;4973603;28;20050;-74
2022/01/06 07:44:23;;;;;;;55.95;29.55;;;4.10;99.90;;;;;;4973812;28;20034;-73
2022/01/06 07:46:48;;;;;;;46.30;23.70;;;4.10;99.90;;;;;;4973947;28;20370;-73
2022/01/06 07:49:14;;;;;;;49.30;26.75;;;4.10;99.90;;;;;;4973559;28;20363;-75
2022/01/06 07:51:40;;;;;;;52.50;30.83;;;4.10;99.90;;;;;;4973797;28;20030;-74
2022/01/06 07:54:07;;;;;;;60.75;32.35;;;4.20;99.90;;;;;;4973673;28;20030;-75
2022/01/06 07:56:33;;;;;;;64.90;35.88;;;4.20;99.90;;;;;;4973580;28;20027;-73
2022/01/06 07:58:59;;;;;;;87.07;47.42;;;4.20;99.90;;;;;;4973767;28;20503;-74
2022/01/06 08:01:25;;;;;;;108.95;55.92;;;4.20;99.90;;;;;;4973526;28;20106;-74
2022/01/06 08:03:51;;;;;;;104.78;49.60;;;4.20;99.90;;;;;;4973769;28;20114;-74
2022/01/06 08:06:18;;;;;;;101.82;48.92;;;4.20;99.90;;;;;;4973398;28;20062;-74
2022/01/06 08:08:44;;;;;;;78.63;40.45;;;4.20;99.90;;;;;;4973362;28;20118;-74
2022/01/06 08:11:11;;;;;;;134.30;66.72;;;4.20;99.90;;;;;;4973342;28;20470;-74
2022/01/06 08:13:37;;;;;;;61.95;34.13;;;4.20;99.90;;;;;;4973356;28;20148;-74
2022/01/06 08:16:03;;;;;;;59.72;33.80;;;4.20;99.90;;;;;;4973311;28;20052;-73
2022/01/06 08:18:29;;;;;;;59.47;33.72;;;4.20;99.90;;;;;;4973383;28;20034;-74
2022/01/06 08:20:55;;;;;;;84.65;42.72;;;4.20;99.90;;;;;;4973626;28;20377;-75
2022/01/06 08:23:21;;;;;;;164.82;80.78;;;4.20;99.90;;;;;;4972816;28;20023;-74
2022/01/06 08:25:47;;;;;;;80.15;44.28;;;4.30;99.90;;;;;;4973282;28;20031;-74
2022/01/06 08:28:13;;;;;;;50.33;26.75;;;4.20;99.90;;;;;;4973006;28;20061;-74
2022/01/06 08:30:39;;;;;;;51.65;26.88;;;4.30;99.90;;;;;;4972934;28;20030;-74
2022/01/06 08:33:05;;;;;;;72.85;36.38;;;4.30;99.90;;;;;;4972997;28;20367;-74
2022/01/06 08:35:31;;;;;;;67.25;31.00;;;4.30;99.90;;;;;;4973303;28;20023;-74
2022/01/06 08:37:57;;;;;;;79.68;37.30;;;4.20;99.90;;;;;;4972358;28;20031;-74
2022/01/06 08:40:23;;;;;;;148.70;71.47;;;4.30;99.90;;;;;;4973281;28;20031;-73
2022/01/06 08:42:49;;;;;;;157.23;73.95;;;4.30;99.90;;;;;;4972969;28;20417;-74
2022/01/06 08:45:18;;;;;;;128.32;66.18;;;4.30;99.90;;;;;;4973003;28;20031;-73
2022/01/06 08:47:45;;;;;;;100.53;45.38;;;4.30;99.90;;;;;;4972843;28;20470;-74
2022/01/06 08:50:11;;;;;;;99.50;47.97;;;4.20;99.90;;;;;;4972590;28;20063;-74
2022/01/06 08:52:39;;;;;;;84.70;42.95;;;4.20;99.90;;;;;;4972682;28;20027;-74
2022/01/06 08:55:06;;;;;;;716.35;384.63;;;4.30;99.90;;;;;;4972089;28;20034;-74
2022/01/06 08:57:32;;;;;;;377.25;190.68;;;4.30;99.90;;;;;;4972670;28;20126;-74
2022/01/06 08:59:58;;;;;;;80.20;35.80;;;4.40;99.90;;;;;;4972865;28;20105;-74
2022/01/06 09:02:24;;;;;;;73.15;35.95;;;4.40;99.90;;;;;;4972445;28;20110;-74
2022/01/06 09:04:51;;;;;;;61.22;30.77;;;4.30;99.90;;;;;;4972512;28;20059;-74
2022/01/06 09:07:16;;;;;;;69.70;30.35;;;4.30;99.90;;;;;;4972340;28;20031;-74
2022/01/06 09:09:42;;;;;;;120.90;51.58;;;4.30;99.90;;;;;;4972655;28;20042;-74
2022/01/06 09:12:16;;;;;;;232.98;84.90;;;4.30;99.90;;;;;;4972265;28;20030;-74
2022/01/06 09:14:43;;;;;;;75.15;36.67;;;4.30;99.90;;;;;;4972931;28;20516;-74
2022/01/06 09:17:09;;;;;;;59.90;28.42;;;4.30;99.90;;;;;;4972645;28;20044;-74
2022/01/06 09:19:35;;;;;;;55.80;23.40;;;4.30;99.90;;;;;;4972160;28;20023;-73
2022/01/06 09:22:01;;;;;;;384.67;181.73;;;4.30;99.90;;;;;;4972628;28;20031;-73
2022/01/06 09:24:28;;;;;;;90.93;41.40;;;4.30;99.90;;;;;;4972560;28;20115;-73
2022/01/06 09:26:54;;;;;;;131.43;61.35;;;4.30;99.90;;;;;;4972158;28;20035;-73
2022/01/06 09:29:19;;;;;;;98.90;46.20;;;4.30;99.90;;;;;;4972119;28;20113;-73
2022/01/06 09:31:45;;;;;;;71.30;31.98;;;4.40;99.90;;;;;;4972173;28;20114;-73
2022/01/06 09:34:12;;;;;;;43.25;23.27;;;4.40;99.90;;;;;;4972219;28;20027;-73
2022/01/06 09:36:39;;;;;;;58.25;26.98;;;4.30;99.90;;;;;;4972287;28;20473;-73
2022/01/06 09:39:07;;;;;;;80.30;37.42;;;4.40;99.90;;;;;;4971857;28;20035;-73
2022/01/06 09:41:33;;;;;;;86.32;40.38;;;4.40;99.90;;;;;;4972051;28;20030;-73
2022/01/06 09:44:01;;;;;;;67.93;30.38;;;4.50;99.90;;;;;;4972398;28;20190;-73
2022/01/06 09:46:27;;;;;;;75.18;36.67;;;4.40;99.90;;;;;;4972003;28;20031;-73
2022/01/06 09:48:57;;;;;;;52.20;26.63;;;4.40;99.90;;;;;;4972095;28;20106;-73
2022/01/06 09:51:24;;;;;;;47.83;23.77;;;4.40;99.90;;;;;;4972044;28;20042;-73
2022/01/06 09:53:54;;;;;;;56.38;30.35;;;4.40;99.90;;;;;;4971969;28;20031;-73
2022/01/06 09:56:20;;;;;;;67.97;32.72;;;4.40;99.90;;;;;;4972089;28;20023;-73
2022/01/06 09:58:46;;;;;;;68.22;32.78;;;4.30;99.90;;;;;;4972092;28;20054;-73
2022/01/06 10:01:12;;;;;;;60.60;29.40;;;4.40;99.90;;;;;;4971954;28;20473;-73
2022/01/06 10:03:44;;;;;;;76.22;33.53;;;4.40;99.90;;;;;;4971805;28;20038;-73
2022/01/06 10:06:19;;;;;;;68.28;34.00;;;4.50;99.90;;;;;;4972832;28;20038;-73
2022/01/06 10:09:01;;;;;;;44.05;21.50;;;4.50;99.90;;;;;;4975105;28;20149;-73
2022/01/06 10:11:29;;;;;;;39.28;19.45;;;4.40;99.90;;;;;;4975009;28;20412;-74
2022/01/06 10:13:59;;;;;;;50.40;26.13;;;4.30;99.90;;;;;;4974793;28;20039;-73
2022/01/06 10:16:30;;;;;;;42.58;22.80;;;4.40;99.90;;;;;;4974995;28;20031;-73
2022/01/06 10:19:17;;;;;;;50.95;26.67;;;4.30;99.90;;;;;;4974977;28;20389;-73
2022/01/06 10:21:49;;;;;;;38.88;20.45;;;4.30;99.90;;;;;;4975007;28;20027;-72
2022/01/06 10:24:22;;;;;;;50.50;23.30;;;4.30;99.90;;;;;;4976048;28;20037;-73
2022/01/06 10:26:52;;;;;;;40.42;25.60;;;4.40;99.90;;;;;;4975068;28;20031;-72
2022/01/06 10:29:19;;;;;;;41.72;19.55;;;4.30;99.90;;;;;;4974933;28;20039;-72
2022/01/06 10:31:46;;;;;;;60.28;31.73;;;4.20;99.90;;;;;;4974881;28;20058;-73
2022/01/06 10:34:12;;;;;;;47.60;24.92;;;4.30;99.90;;;;;;4974994;28;20110;-73
2022/01/06 10:36:39;;;;;;;61.33;29.15;;;4.20;99.90;;;;;;4974717;28;20121;-73
2022/01/06 10:39:08;;;;;;;91.82;49.22;;;4.20;99.90;;;;;;4974903;28;20027;-73
2022/01/06 10:41:36;;;;;;;63.70;33.67;;;4.20;99.90;;;;;;4974958;28;20081;-73
2022/01/06 10:44:02;;;;;;;69.15;33.83;;;4.20;99.90;;;;;;4974703;28;20055;-73
2022/01/06 10:46:39;;;;;;;47.83;23.65;;;4.20;99.90;;;;;;4974680;28;20367;-73
2022/01/06 10:49:12;;;;;;;49.80;25.50;;;4.10;99.90;;;;;;4975013;28;20023;-73
2022/01/06 10:51:46;;;;;;;63.05;29.50;;;4.20;99.90;;;;;;4974772;28;20031;-73
2022/01/06 10:54:21;;;;;;;63.47;30.77;;;4.10;99.90;;;;;;4974433;28;20019;-74
2022/01/06 10:57:02;;;;;;;36.65;20.45;;;4.10;99.90;;;;;;4974111;28;20470;-73
2022/01/06 10:59:33;;;;;;;49.08;26.58;;;3.90;99.90;;;;;;4974121;28;20034;-73
2022/01/06 11:02:00;;;;;;;50.53;28.27;;;3.90;99.90;;;;;;4974483;28;20030;-74
2022/01/06 11:04:27;;;;;;;54.55;31.00;;;3.90;99.90;;;;;;4974076;28;20116;-74
2022/01/06 11:06:53;;;;;;;73.20;37.13;;;3.90;99.90;;;;;;4974217;28;20018;-73
2022/01/06 11:09:19;;;;;;;53.83;30.25;;;3.90;99.90;;;;;;4974616;28;20023;-74
2022/01/06 11:14:17;;;;;;;74.00;43.00;;;3.90;99.90;;;;;;4974550;28;20470;-74
2022/01/06 11:16:44;;;;;;;227.25;93.25;;;4.00;99.90;;;;;;4974448;28;20035;-74
2022/01/06 11:19:11;;;;;;;99.90;48.70;;;4.00;99.90;;;;;;4973641;28;20408;-74
2022/01/06 11:21:41;;;;;;;78.28;39.35;;;3.90;99.90;;;;;;4973758;28;20165;-74
2022/01/06 11:24:16;;;;;;;84.25;44.10;;;3.90;99.90;;;;;;4973531;28;20045;-74
2022/01/06 11:26:55;;;;;;;110.07;57.50;;;3.90;99.90;;;;;;4974244;28;20046;-74
2022/01/06 11:29:30;;;;;;;96.88;47.72;;;3.90;99.90;;;;;;4974276;28;20035;-74
2022/01/06 11:31:56;;;;;;;135.35;67.22;;;3.90;99.90;;;;;;4973777;28;20050;-74
2022/01/06 11:34:22;;;;;;;166.50;93.47;;;3.90;99.90;;;;;;4974003;28;20022;-74
2022/01/06 11:36:51;;;;;;;197.73;92.70;;;4.00;99.90;;;;;;4974234;28;20031;-74
2022/01/06 11:39:35;;;;;;;149.77;70.55;;;4.00;99.90;;;;;;4973986;28;20462;-74
2022/01/06 11:42:20;;;;;;;135.75;70.88;;;4.00;99.90;;;;;;4973730;28;20054;-74
2022/01/06 11:44:54;;;;;;;141.98;69.63;;;3.90;99.90;;;;;;4973798;28;20027;-74
2022/01/06 11:47:35;;;;;;;92.15;53.45;;;3.90;99.90;;;;;;4973707;28;20034;-74
2022/01/06 11:50:24;;;;;;;104.22;56.45;;;3.80;99.90;;;;;;4973943;28;20031;-74
2022/01/06 11:52:55;;;;;;;100.97;55.28;;;3.80;99.90;;;;;;4973413;28;20529;-74
2022/01/06 11:55:23;;;;;;;146.07;76.63;;;3.80;99.90;;;;;;4973750;28;20094;-74
2022/01/06 11:57:51;;;;;;;137.73;73.75;;;3.90;99.90;;;;;;4973875;28;20046;-74
2022/01/06 12:00:23;;;;;;;87.10;48.67;;;3.90;99.90;;;;;;4973608;28;20030;-74
2022/01/06 12:03:04;;;;;;;82.38;42.92;;;3.90;99.90;;;;;;4973776;28;20085;-74
2022/01/06 12:05:49;;;;;;;87.93;43.63;;;4.00;99.90;;;;;;4973382;28;20386;-74
2022/01/06 12:08:19;;;;;;;86.85;44.05;;;4.00;99.90;;;;;;4973562;28;20126;-74
2022/01/06 12:10:47;;;;;;;100.32;51.63;;;4.00;99.90;;;;;;4973331;28;20420;-74
2022/01/06 12:13:14;;;;;;;104.35;49.75;;;4.10;99.90;;;;;;4973394;28;20030;-74
2022/01/06 12:15:53;;;;;;;85.30;43.10;;;4.10;99.90;;;;;;4973462;28;20061;-74
2022/01/06 12:18:21;;;;;;;91.88;41.33;;;4.10;99.90;;;;;;4973471;28;20115;-74
2022/01/06 12:20:48;;;;;;;93.82;45.03;;;4.10;99.90;;;;;;4973495;28;20035;-74
2022/01/06 12:23:15;;;;;;;235.00;81.95;;;4.20;99.90;;;;;;4973449;28;20023;-74
2022/01/06 12:25:42;;;;;;;233.93;83.57;;;4.20;99.90;;;;;;4973038;28;20033;-74
2022/01/06 12:28:11;;;;;;;88.72;44.33;;;4.30;99.90;;;;;;4973120;28;20113;-74
2022/01/06 12:30:40;;;;;;;86.28;50.33;;;4.30;99.90;;;;;;4971821;28;20033;-73
2022/01/06 12:33:08;;;;;;;68.65;35.67;;;4.40;99.90;;;;;;4973243;28;20462;-74
2022/01/06 12:35:35;;;;;;;89.07;42.05;;;4.40;99.90;;;;;;4973009;28;20404;-74
2022/01/06 12:38:01;;;;;;;76.00;37.80;;;4.50;99.90;;;;;;4973344;28;20060;-74
2022/01/06 12:40:41;;;;;;;153.45;70.20;;;4.50;99.90;;;;;;4972850;28;20037;-74
2022/01/06 12:43:19;;;;;;;148.05;75.68;;;4.60;99.90;;;;;;4973070;28;20039;-74
2022/01/06 12:45:46;;;;;;;131.57;67.82;;;4.60;99.90;;;;;;4973023;28;20035;-74
2022/01/06 12:48:13;;;;;;;129.13;69.32;;;4.70;99.90;;;;;;4972469;28;20035;-74
2022/01/06 12:50:50;;;;;;;105.28;55.35;;;4.60;99.90;;;;;;4972976;28;20369;-74